Time,TemperatureF,DewpointF,PressureIn,WindDirection,WindDirectionDegrees,WindSpeedMPH,WindSpeedGustMPH,Humidity,HourlyPrecipIn,Conditions,Clouds,dailyrainin,SoftwareType,DateUTC
2013-06-17 00:01:00,68.7,53.4,29.06,SSE,156,3.6,3.6,58,0.00,,SKC,0.00,VWS V14.01,2013-06-17 05:01:00,
2013-06-17 00:06:00,68.7,52.9,29.06,SSE,156,2.7,3.1,57,0.00,,SKC,0.00,VWS V14.01,2013-06-17 05:06:00,
2013-06-17 00:11:00,68.7,52.9,29.06,SSE,156,3.1,3.6,57,0.00,,SKC,0.00,VWS V14.01,2013-06-17 05:11:00,
2013-06-17 00:16:00,68.5,52.7,29.06,SSE,156,3.1,3.1,57,0.00,,SKC,0.00,VWS V14.01,2013-06-17 05:16:00,
2013-06-17 00:21:00,68.5,53.2,29.06,SSE,158,2.2,3.1,58,0.00,,SKC,0.00,VWS V14.01,2013-06-17 05:21:00,
2013-06-17 00:26:00,68.4,53.0,29.06,SSE,159,3.1,3.1,58,0.00,,SKC,0.00,VWS V14.01,2013-06-17 05:26:00,
2013-06-17 00:31:00,68.4,53.5,29.06,SSE,163,3.1,3.1,59,0.00,,SKC,0.00,VWS V14.01,2013-06-17 05:31:00,
2013-06-17 00:36:00,68.4,53.5,29.06,South,169,3.6,3.6,59,0.00,,SKC,0.00,VWS V14.01,2013-06-17 05:36:00,
2013-06-17 00:41:00,68.4,53.5,29.06,South,169,2.7,3.1,59,0.00,,SKC,0.00,VWS V14.01,2013-06-17 05:41:00,
2013-06-17 00:46:00,68.4,53.5,29.03,South,169,2.7,2.7,59,0.00,,SKC,0.00,VWS V14.01,2013-06-17 05:46:00,
2013-06-17 00:51:00,68.4,53.5,29.03,South,169,3.6,3.6,59,0.00,,SKC,0.00,VWS V14.01,2013-06-17 05:51:00,
2013-06-17 00:56:00,68.4,53.5,29.03,South,169,3.1,3.1,59,0.00,,SKC,0.00,VWS V14.01,2013-06-17 05:56:00,
2013-06-17 01:01:00,68.4,53.5,29.06,South,169,2.7,2.7,59,0.00,,SKC,0.00,VWS V14.01,2013-06-17 06:01:00,
2013-06-17 01:06:00,68.5,52.7,29.06,South,169,2.7,2.7,57,0.00,,SKC,0.00,VWS V14.01,2013-06-17 06:06:00,
2013-06-17 01:11:00,68.5,52.2,29.06,South,169,2.7,3.1,56,0.00,,SKC,0.00,VWS V14.01,2013-06-17 06:11:00,
2013-06-17 01:16:00,68.5,52.7,29.06,South,169,2.7,2.7,57,0.00,,SKC,0.00,VWS V14.01,2013-06-17 06:16:00,
2013-06-17 01:21:00,68.4,52.5,29.06,South,169,3.1,3.1,57,0.00,,SKC,0.00,VWS V14.01,2013-06-17 06:21:00,
2013-06-17 01:26:00,68.4,53.0,29.06,South,169,2.7,3.6,58,0.00,,SKC,0.00,VWS V14.01,2013-06-17 06:26:00,
2013-06-17 01:31:00,68.2,52.9,29.06,South,169,3.1,3.1,58,0.00,,SKC,0.00,VWS V14.01,2013-06-17 06:31:00,
2013-06-17 01:36:00,68.2,52.9,29.06,South,169,3.6,3.6,58,0.00,,SKC,0.00,VWS V14.01,2013-06-17 06:36:00,
2013-06-17 01:41:00,68.2,52.9,29.06,South,169,3.6,3.6,58,0.00,,SKC,0.00,VWS V14.01,2013-06-17 06:41:00,
2013-06-17 01:46:00,68.2,53.3,29.06,South,169,4.0,4.0,59,0.00,,SKC,0.00,VWS V14.01,2013-06-17 06:46:00,
2013-06-17 01:51:00,68.0,53.2,29.06,SSE,167,3.1,3.6,59,0.00,,SKC,0.00,VWS V14.01,2013-06-17 06:51:00,
2013-06-17 01:56:00,68.0,53.2,29.06,SSE,168,3.6,3.6,59,0.00,,SKC,0.00,VWS V14.01,2013-06-17 06:56:00,
2013-06-17 02:01:00,67.8,53.4,29.06,SSE,168,3.6,3.6,60,0.00,,SKC,0.00,VWS V14.01,2013-06-17 07:01:00,
2013-06-17 02:06:00,67.6,54.2,29.06,SSE,166,4.0,4.0,62,0.00,,SKC,0.00,VWS V14.01,2013-06-17 07:06:00,
2013-06-17 02:11:00,67.5,54.9,29.06,SSE,164,4.0,4.0,64,0.00,,SKC,0.00,VWS V14.01,2013-06-17 07:11:00,
2013-06-17 02:16:00,67.5,55.3,29.06,SSE,168,4.0,4.0,65,0.00,,SKC,0.00,VWS V14.01,2013-06-17 07:16:00,
2013-06-17 02:21:00,67.3,55.1,29.06,SSE,167,3.6,3.6,65,0.00,,SKC,0.00,VWS V14.01,2013-06-17 07:21:00,
2013-06-17 02:26:00,67.1,55.4,29.06,SSE,167,4.0,4.0,66,0.00,,SKC,0.00,VWS V14.01,2013-06-17 07:26:00,
2013-06-17 02:31:00,67.1,55.8,29.06,SSE,168,4.0,4.0,67,0.00,,SKC,0.00,VWS V14.01,2013-06-17 07:31:00,
2013-06-17 02:36:00,67.1,56.2,29.06,South,170,3.6,3.6,68,0.00,,SKC,0.00,VWS V14.01,2013-06-17 07:36:00,
2013-06-17 02:41:00,67.1,56.2,29.06,SSE,162,2.2,4.0,68,0.00,,SKC,0.00,VWS V14.01,2013-06-17 07:41:00,
2013-06-17 02:46:00,67.1,56.2,29.06,SSE,161,4.0,4.0,68,0.00,,SKC,0.00,VWS V14.01,2013-06-17 07:46:00,
2013-06-17 02:51:00,67.1,56.2,29.06,SSE,162,3.1,4.0,68,0.00,,SKC,0.00,VWS V14.01,2013-06-17 07:51:00,
2013-06-17 02:56:00,66.9,56.4,29.06,SSE,163,3.1,3.1,69,0.00,,SKC,0.00,VWS V14.01,2013-06-17 07:56:00,
2013-06-17 03:01:00,66.9,56.4,29.06,South,170,4.0,4.0,69,0.00,,SKC,0.00,VWS V14.01,2013-06-17 08:01:00,
2013-06-17 03:06:00,66.9,56.8,29.06,SSE,164,3.6,3.6,70,0.00,,SKC,0.00,VWS V14.01,2013-06-17 08:06:00,
2013-06-17 03:11:00,66.9,56.8,29.06,SSE,164,3.6,3.6,70,0.00,,SKC,0.00,VWS V14.01,2013-06-17 08:11:00,
2013-06-17 03:16:00,66.9,56.8,29.06,SSE,164,3.1,3.6,70,0.00,,SKC,0.00,VWS V14.01,2013-06-17 08:16:00,
2013-06-17 03:21:00,66.9,56.8,29.06,SSE,164,3.6,3.6,70,0.00,,SKC,0.00,VWS V14.01,2013-06-17 08:21:00,
2013-06-17 03:26:00,66.9,57.2,29.06,SSE,164,3.1,4.0,71,0.00,,SKC,0.00,VWS V14.01,2013-06-17 08:26:00,
2013-06-17 03:31:00,66.9,57.2,29.06,SSE,164,3.1,3.1,71,0.00,,SKC,0.00,VWS V14.01,2013-06-17 08:31:00,
2013-06-17 03:36:00,66.9,56.8,29.06,SSE,164,2.7,2.7,70,0.00,,SKC,0.00,VWS V14.01,2013-06-17 08:36:00,
2013-06-17 03:41:00,66.9,56.8,29.06,SSE,164,2.2,3.1,70,0.00,,SKC,0.00,VWS V14.01,2013-06-17 08:41:00,
2013-06-17 03:46:00,66.9,56.4,29.06,SSE,164,2.7,2.7,69,0.00,,SKC,0.00,VWS V14.01,2013-06-17 08:46:00,
2013-06-17 03:51:00,66.9,56.4,29.06,SSE,164,3.1,3.6,69,0.00,,SKC,0.00,VWS V14.01,2013-06-17 08:51:00,
2013-06-17 03:56:00,66.7,56.3,29.06,SSE,164,2.7,3.1,69,0.00,,SKC,0.00,VWS V14.01,2013-06-17 08:56:00,
2013-06-17 04:01:00,66.9,56.4,29.03,SSE,164,3.1,3.1,69,0.00,,SKC,0.00,VWS V14.01,2013-06-17 09:01:00,
2013-06-17 04:06:00,66.9,56.4,29.03,SSE,164,3.1,3.1,69,0.00,,SKC,0.00,VWS V14.01,2013-06-17 09:06:00,
2013-06-17 04:11:00,66.9,56.8,29.03,SSE,164,3.6,3.6,70,0.00,,SKC,0.00,VWS V14.01,2013-06-17 09:11:00,
2013-06-17 04:16:00,66.7,56.3,29.06,SSE,164,4.0,4.0,69,0.00,,SKC,0.00,VWS V14.01,2013-06-17 09:16:00,
2013-06-17 04:21:00,66.7,56.7,29.06,SSE,164,0.0,2.2,70,0.00,,SKC,0.00,VWS V14.01,2013-06-17 09:21:00,
2013-06-17 04:26:00,66.9,56.8,29.06,SSE,164,0.0,0.0,70,0.00,,SKC,0.00,VWS V14.01,2013-06-17 09:26:00,
2013-06-17 04:31:00,66.9,56.4,29.06,SSE,164,0.0,0.0,69,0.00,,SKC,0.00,VWS V14.01,2013-06-17 09:31:00,
2013-06-17 04:36:00,66.7,55.8,29.06,SSE,164,2.2,3.1,68,0.00,,SKC,0.00,VWS V14.01,2013-06-17 09:36:00,
2013-06-17 04:41:00,66.7,55.8,29.06,SSE,164,2.7,2.7,68,0.00,,SKC,0.00,VWS V14.01,2013-06-17 09:41:00,
2013-06-17 04:46:00,66.4,55.1,29.06,SSE,164,3.6,3.6,67,0.00,,SKC,0.00,VWS V14.01,2013-06-17 09:46:00,
2013-06-17 04:51:00,66.2,54.9,29.06,SSE,164,3.1,3.1,67,0.00,,SKC,0.00,VWS V14.01,2013-06-17 09:51:00,
2013-06-17 04:56:00,66.0,55.6,29.06,SSE,164,3.6,3.6,69,0.00,,SKC,0.00,VWS V14.01,2013-06-17 09:56:00,
2013-06-17 05:01:00,66.0,56.7,29.06,SSE,164,3.1,3.6,72,0.00,,SKC,0.00,VWS V14.01,2013-06-17 10:01:00,
2013-06-17 05:06:00,65.8,56.6,29.06,SSE,164,2.7,3.1,72,0.00,,SKC,0.00,VWS V14.01,2013-06-17 10:06:00,
2013-06-17 05:11:00,65.7,56.0,29.06,SSE,164,3.6,3.6,71,0.00,,SKC,0.00,VWS V14.01,2013-06-17 10:11:00,
2013-06-17 05:16:00,65.5,55.8,29.06,SSE,164,2.7,3.6,71,0.00,,SKC,0.00,VWS V14.01,2013-06-17 10:16:00,
2013-06-17 05:21:00,65.5,56.2,29.06,SSE,164,3.6,3.6,72,0.00,,SKC,0.00,VWS V14.01,2013-06-17 10:21:00,
2013-06-17 05:26:00,65.3,56.4,29.06,SSE,164,3.1,3.6,73,0.00,,SKC,0.00,VWS V14.01,2013-06-17 10:26:00,
2013-06-17 05:31:00,65.1,56.3,29.06,SSE,164,3.1,4.0,73,0.00,,SKC,0.00,VWS V14.01,2013-06-17 10:31:00,
2013-06-17 05:36:00,64.9,56.5,29.06,SSE,164,3.1,3.6,74,0.00,,SKC,0.00,VWS V14.01,2013-06-17 10:36:00,
2013-06-17 05:41:00,64.9,56.5,29.06,SSE,164,3.1,3.1,74,0.00,,SKC,0.00,VWS V14.01,2013-06-17 10:41:00,
2013-06-17 05:46:00,64.8,56.7,29.06,SSE,164,3.1,3.6,75,0.00,,SKC,0.00,VWS V14.01,2013-06-17 10:46:00,
2013-06-17 05:51:00,64.8,56.7,29.06,SSE,164,3.1,3.6,75,0.00,,SKC,0.00,VWS V14.01,2013-06-17 10:51:00,
2013-06-17 05:56:00,64.6,56.5,29.06,SSE,164,3.1,4.0,75,0.00,,SKC,0.00,VWS V14.01,2013-06-17 10:56:00,
2013-06-17 06:01:00,64.4,56.3,29.03,SSE,164,3.1,3.1,75,0.00,,SKC,0.00,VWS V14.01,2013-06-17 11:01:00,
2013-06-17 06:06:00,64.4,55.9,29.03,SSE,164,3.1,3.1,74,0.00,,SKC,0.00,VWS V14.01,2013-06-17 11:06:00,
2013-06-17 06:11:00,64.4,56.3,29.03,SSE,164,3.1,3.6,75,0.00,,SKC,0.00,VWS V14.01,2013-06-17 11:11:00,
2013-06-17 06:16:00,64.4,56.3,29.06,SSE,164,2.7,3.1,75,0.00,,SKC,0.00,VWS V14.01,2013-06-17 11:16:00,
2013-06-17 06:21:00,64.6,56.5,29.06,SSE,164,3.1,3.6,75,0.00,,SKC,0.00,VWS V14.01,2013-06-17 11:21:00,
2013-06-17 06:26:00,64.4,55.6,29.06,SSE,164,3.6,4.0,73,0.00,,SKC,0.00,VWS V14.01,2013-06-17 11:26:00,
2013-06-17 06:31:00,64.4,55.6,29.06,SSE,164,3.1,3.6,73,0.00,,SKC,0.00,VWS V14.01,2013-06-17 11:31:00,
2013-06-17 06:36:00,64.8,56.3,29.06,SSE,164,3.6,3.6,74,0.00,,SKC,0.00,VWS V14.01,2013-06-17 11:36:00,
2013-06-17 06:41:00,64.9,56.5,29.06,SSE,164,3.6,3.6,74,0.00,,SKC,0.00,VWS V14.01,2013-06-17 11:41:00,
2013-06-17 06:46:00,65.3,57.5,29.09,SSE,164,3.1,3.1,76,0.00,,SKC,0.00,VWS V14.01,2013-06-17 11:46:00,
2013-06-17 06:51:00,65.7,58.6,29.09,SSE,164,3.6,3.6,78,0.00,,SKC,0.00,VWS V14.01,2013-06-17 11:51:00,
2013-06-17 06:56:00,66.0,59.3,29.09,SSE,164,3.6,3.6,79,0.00,,SKC,0.00,VWS V14.01,2013-06-17 11:56:00,
2013-06-17 07:01:00,66.4,59.7,29.09,SSE,164,3.6,3.6,79,0.00,,SKC,0.00,VWS V14.01,2013-06-17 12:01:00,
2013-06-17 07:06:00,66.6,59.8,29.09,SSE,164,2.7,4.0,79,0.00,,SKC,0.00,VWS V14.01,2013-06-17 12:06:00,
2013-06-17 07:11:00,66.9,59.8,29.09,SSE,164,3.1,3.6,78,0.00,,SKC,0.00,VWS V14.01,2013-06-17 12:11:00,
2013-06-17 07:16:00,67.1,59.7,29.06,SSE,164,2.7,3.6,77,0.00,,SKC,0.00,VWS V14.01,2013-06-17 12:16:00,
2013-06-17 07:21:00,67.5,59.6,29.06,SSE,164,2.7,3.1,76,0.00,,SKC,0.00,VWS V14.01,2013-06-17 12:21:00,
2013-06-17 07:26:00,67.6,59.1,29.06,SSE,164,2.7,2.7,74,0.00,,SKC,0.00,VWS V14.01,2013-06-17 12:26:00,
2013-06-17 07:31:00,68.0,59.0,29.06,SSE,164,2.2,2.2,73,0.00,,SKC,0.00,VWS V14.01,2013-06-17 12:31:00,
2013-06-17 07:36:00,68.4,58.6,29.06,SSE,164,2.7,2.7,71,0.00,,SKC,0.00,VWS V14.01,2013-06-17 12:36:00,
2013-06-17 07:41:00,68.7,57.7,29.06,SSE,164,0.0,2.7,68,0.00,,SKC,0.00,VWS V14.01,2013-06-17 12:41:00,
2013-06-17 07:46:00,69.3,57.4,29.09,SSE,164,0.0,0.0,66,0.00,,SKC,0.00,VWS V14.01,2013-06-17 12:46:00,
2013-06-17 07:51:00,69.6,55.6,29.09,SSE,164,0.0,0.0,61,0.00,,SKC,0.00,VWS V14.01,2013-06-17 12:51:00,
2013-06-17 07:56:00,69.6,52.8,29.09,SSE,164,2.2,2.2,55,0.00,,SKC,0.00,VWS V14.01,2013-06-17 12:56:00,
2013-06-17 08:01:00,70.2,51.7,29.09,SSE,164,0.0,2.7,52,0.00,,SKC,0.00,VWS V14.01,2013-06-17 13:01:00,
2013-06-17 08:06:00,70.5,49.9,29.09,SSE,164,0.0,0.0,48,0.00,,SKC,0.00,VWS V14.01,2013-06-17 13:06:00,
2013-06-17 08:11:00,70.9,49.1,29.09,SSE,164,0.0,0.0,46,0.00,,SKC,0.00,VWS V14.01,2013-06-17 13:11:00,
2013-06-17 08:15:00,71.4,49.6,29.09,SSE,164,0.0,0.0,46,0.00,,SKC,0.00,VWS V14.01,2013-06-17 13:15:00,
2013-06-17 08:20:00,71.6,49.2,29.09,SSE,164,0.0,2.7,45,0.00,,SKC,0.00,VWS V14.01,2013-06-17 13:20:00,
2013-06-17 08:25:00,72.0,48.3,29.09,SSE,164,3.1,3.1,43,0.00,,SKC,0.00,VWS V14.01,2013-06-17 13:25:00,
2013-06-17 08:30:00,72.1,47.8,29.09,SSE,164,0.0,2.2,42,0.00,,SKC,0.00,VWS V14.01,2013-06-17 13:30:00,
2013-06-17 08:35:00,72.5,45.5,29.09,SSE,164,0.0,2.7,38,0.00,,SKC,0.00,VWS V14.01,2013-06-17 13:35:00,
2013-06-17 08:40:00,72.9,44.4,29.09,SSE,164,2.7,3.1,36,0.00,,SKC,0.00,VWS V14.01,2013-06-17 13:40:00,
2013-06-17 08:45:00,73.0,42.3,29.09,NE,39,4.0,4.0,33,0.00,,SKC,0.00,VWS V14.01,2013-06-17 13:45:00,
2013-06-17 08:50:00,73.2,42.4,29.09,NE,39,3.1,4.0,33,0.00,,SKC,0.00,VWS V14.01,2013-06-17 13:50:00,
2013-06-17 08:55:00,73.2,41.6,29.09,NE,39,2.7,2.7,32,0.00,,SKC,0.00,VWS V14.01,2013-06-17 13:55:00,
2013-06-17 09:00:00,73.4,41.0,29.09,NE,39,2.7,2.7,31,0.00,,SKC,0.00,VWS V14.01,2013-06-17 14:00:00,
2013-06-17 09:05:00,73.6,38.5,29.09,NE,39,3.1,3.1,28,0.00,,SKC,0.00,VWS V14.01,2013-06-17 14:05:00,
2013-06-17 09:10:00,73.8,39.5,29.09,NE,39,3.1,3.1,29,0.00,,SKC,0.00,VWS V14.01,2013-06-17 14:10:00,
2013-06-17 09:15:00,74.1,39.0,29.09,NE,39,3.1,4.0,28,0.00,,SKC,0.00,VWS V14.01,2013-06-17 14:15:00,
2013-06-17 09:20:00,74.3,37.2,29.09,NE,39,2.2,3.1,26,0.00,,SKC,0.00,VWS V14.01,2013-06-17 14:20:00,
2013-06-17 09:25:00,74.5,36.4,29.09,NE,38,2.7,3.6,25,0.00,,SKC,0.00,VWS V14.01,2013-06-17 14:25:00,
2013-06-17 09:30:00,74.8,35.7,29.09,NE,35,3.6,3.6,24,0.00,,SKC,0.00,VWS V14.01,2013-06-17 14:30:00,
2013-06-17 09:35:00,75.0,35.8,29.09,NNE,23,2.7,3.6,24,0.00,,SKC,0.00,VWS V14.01,2013-06-17 14:35:00,
2013-06-17 09:40:00,75.4,35.0,29.09,NNE,23,3.6,4.0,23,0.00,,SKC,0.00,VWS V14.01,2013-06-17 14:40:00,
2013-06-17 09:45:00,75.6,36.3,29.09,NNE,23,3.6,3.6,24,0.00,,SKC,0.00,VWS V14.01,2013-06-17 14:45:00,
2013-06-17 09:50:00,75.9,36.6,29.09,NNE,23,3.1,3.6,24,0.00,,SKC,0.00,VWS V14.01,2013-06-17 14:50:00,
2013-06-17 09:55:00,76.3,35.8,29.09,NNE,17,4.9,4.9,23,0.00,,SKC,0.00,VWS V14.01,2013-06-17 14:55:00,
2013-06-17 10:00:00,76.6,36.1,29.09,NNE,17,4.0,4.0,23,0.00,,SKC,0.00,VWS V14.01,2013-06-17 15:00:00,
2013-06-17 10:05:00,76.6,35.0,29.09,NNE,14,3.6,4.0,22,0.00,,SKC,0.00,VWS V14.01,2013-06-17 15:05:00,
2013-06-17 10:10:00,76.8,35.1,29.09,NNE,15,2.7,3.6,22,0.00,,SKC,0.00,VWS V14.01,2013-06-17 15:10:00,
2013-06-17 10:15:00,77.0,34.1,29.09,NNE,15,3.6,3.6,21,0.00,,SKC,0.00,VWS V14.01,2013-06-17 15:15:00,
2013-06-17 10:20:00,77.4,33.2,29.09,NNE,15,3.6,4.0,20,0.00,,SKC,0.00,VWS V14.01,2013-06-17 15:20:00,
2013-06-17 10:25:00,77.4,33.2,29.09,NNE,15,3.1,3.1,20,0.00,,SKC,0.00,VWS V14.01,2013-06-17 15:25:00,
2013-06-17 10:30:00,77.5,33.3,29.09,NNE,14,3.6,4.0,20,0.00,,SKC,0.00,VWS V14.01,2013-06-17 15:30:00,
2013-06-17 10:35:00,77.5,33.3,29.09,NNE,14,2.7,2.7,20,0.00,,SKC,0.00,VWS V14.01,2013-06-17 15:35:00,
2013-06-17 10:40:00,77.7,33.5,29.09,NNE,14,2.2,3.1,20,0.00,,SKC,0.00,VWS V14.01,2013-06-17 15:40:00,
2013-06-17 10:45:00,77.7,30.9,29.09,NNE,14,3.1,3.1,18,0.00,,SKC,0.00,VWS V14.01,2013-06-17 15:45:00,
2013-06-17 10:50:00,78.1,31.2,29.09,NNE,14,2.7,2.7,18,0.00,,SKC,0.00,VWS V14.01,2013-06-17 15:50:00,
2013-06-17 10:55:00,78.1,33.8,29.09,NNE,14,3.1,3.1,20,0.00,,SKC,0.00,VWS V14.01,2013-06-17 15:55:00,
2013-06-17 11:00:00,78.3,31.3,29.09,NNE,14,0.0,0.0,18,0.00,,SKC,0.00,VWS V14.01,2013-06-17 16:00:00,
2013-06-17 11:05:00,78.6,31.6,29.09,NNE,14,2.2,3.1,18,0.00,,SKC,0.00,VWS V14.01,2013-06-17 16:05:00,
2013-06-17 11:10:00,78.6,31.6,29.09,NNE,14,2.7,3.1,18,0.00,,SKC,0.00,VWS V14.01,2013-06-17 16:10:00,
2013-06-17 11:15:00,79.0,30.5,29.06,NNE,14,3.1,3.1,17,0.00,,SKC,0.00,VWS V14.01,2013-06-17 16:15:00,
2013-06-17 11:20:00,79.2,30.6,29.06,NNE,14,3.1,3.1,17,0.00,,SKC,0.00,VWS V14.01,2013-06-17 16:20:00,
2013-06-17 11:25:00,79.2,30.6,29.06,NNE,14,0.0,0.0,17,0.00,,SKC,0.00,VWS V14.01,2013-06-17 16:25:00,
2013-06-17 11:30:00,79.5,27.9,29.06,NNE,14,2.7,3.1,15,0.00,,SKC,0.00,VWS V14.01,2013-06-17 16:30:00,
2013-06-17 11:35:00,80.1,28.3,29.06,NNE,14,2.2,2.2,15,0.00,,SKC,0.00,VWS V14.01,2013-06-17 16:35:00,
2013-06-17 11:40:00,80.4,28.6,29.06,NNE,14,2.7,2.7,15,0.00,,SKC,0.00,VWS V14.01,2013-06-17 16:40:00,
2013-06-17 11:45:00,80.6,27.0,29.09,NNE,14,2.2,3.1,14,0.00,,SKC,0.00,VWS V14.01,2013-06-17 16:45:00,
2013-06-17 11:50:00,80.8,27.2,29.09,NNE,14,2.7,2.7,14,0.00,,SKC,0.00,VWS V14.01,2013-06-17 16:50:00,
2013-06-17 11:55:00,81.1,27.5,29.09,NNE,29,2.2,3.6,14,0.00,,SKC,0.00,VWS V14.01,2013-06-17 16:55:00,
2013-06-17 12:00:00,81.3,27.6,29.06,NNE,24,2.2,2.7,14,0.00,,SKC,0.00,VWS V14.01,2013-06-17 17:00:00,
2013-06-17 12:05:00,81.7,27.9,29.06,NNE,19,2.2,2.2,14,0.00,,SKC,0.00,VWS V14.01,2013-06-17 17:05:00,
2013-06-17 12:10:00,82.0,28.2,29.06,NNE,19,2.7,3.1,14,0.00,,SKC,0.00,VWS V14.01,2013-06-17 17:10:00,
2013-06-17 12:15:00,82.6,28.6,29.09,NNE,15,3.1,3.1,14,0.00,,SKC,0.00,VWS V14.01,2013-06-17 17:15:00,
2013-06-17 12:20:00,82.8,28.8,29.09,NNE,14,3.6,3.6,14,0.00,,SKC,0.00,VWS V14.01,2013-06-17 17:20:00,
2013-06-17 12:25:00,82.9,28.9,29.09,NNE,18,3.6,3.6,14,0.00,,SKC,0.00,VWS V14.01,2013-06-17 17:25:00,
2013-06-17 12:30:00,83.3,29.2,29.09,North,3,3.1,3.1,14,0.00,,SKC,0.00,VWS V14.01,2013-06-17 17:30:00,
2013-06-17 12:35:00,84.0,29.8,29.09,NNW,346,3.6,3.6,14,0.00,,SKC,0.00,VWS V14.01,2013-06-17 17:35:00,
2013-06-17 12:40:00,84.6,28.4,29.09,NNW,345,2.7,2.7,13,0.00,,SKC,0.00,VWS V14.01,2013-06-17 17:40:00,
2013-06-17 12:45:00,84.2,28.1,29.09,NNW,348,0.0,0.0,13,0.00,,SKC,0.00,VWS V14.01,2013-06-17 17:45:00,
2013-06-17 12:50:00,83.8,29.6,29.09,NNW,337,0.0,2.2,14,0.00,,SKC,0.00,VWS V14.01,2013-06-17 17:50:00,
2013-06-17 12:55:00,83.8,29.6,29.09,North,351,0.0,0.0,14,0.00,,SKC,0.00,VWS V14.01,2013-06-17 17:55:00,
2013-06-17 13:00:00,84.2,28.1,29.06,North,2,3.1,3.1,13,0.00,,SKC,0.00,VWS V14.01,2013-06-17 18:00:00,
2013-06-17 13:05:00,84.7,28.5,29.06,North,1,2.7,2.7,13,0.00,,SKC,0.00,VWS V14.01,2013-06-17 18:05:00,
2013-06-17 13:10:00,85.3,28.9,29.06,NNW,344,2.7,2.7,13,0.00,,SKC,0.00,VWS V14.01,2013-06-17 18:10:00,
2013-06-17 13:15:00,85.5,29.1,29.09,North,355,0.0,2.2,13,0.00,,SKC,0.00,VWS V14.01,2013-06-17 18:15:00,
2013-06-17 13:20:00,85.5,29.1,29.09,North,355,0.0,2.2,13,0.00,,SKC,0.00,VWS V14.01,2013-06-17 18:20:00,
2013-06-17 13:25:00,85.8,29.4,29.09,North,1,2.7,3.1,13,0.00,,SKC,0.00,VWS V14.01,2013-06-17 18:25:00,
2013-06-17 13:30:00,86.2,29.6,29.06,North,6,2.7,3.1,13,0.00,,SKC,0.00,VWS V14.01,2013-06-17 18:30:00,
2013-06-17 13:35:00,86.2,29.6,29.06,North,6,2.2,2.7,13,0.00,,SKC,0.00,VWS V14.01,2013-06-17 18:35:00,
2013-06-17 13:40:00,86.4,29.8,29.06,North,5,2.2,2.7,13,0.00,,SKC,0.00,VWS V14.01,2013-06-17 18:40:00,
2013-06-17 13:45:00,86.4,29.8,29.09,North,351,3.1,3.6,13,0.00,,SKC,0.00,VWS V14.01,2013-06-17 18:45:00,
2013-06-17 13:50:00,86.5,29.9,29.09,NNW,346,2.2,2.2,13,0.00,,SKC,0.00,VWS V14.01,2013-06-17 18:50:00,
2013-06-17 13:55:00,86.7,30.0,29.09,North,350,0.0,2.7,13,0.00,,SKC,0.00,VWS V14.01,2013-06-17 18:55:00,
2013-06-17 14:00:00,87.1,30.3,29.09,North,350,2.7,2.7,13,0.00,,SKC,0.00,VWS V14.01,2013-06-17 19:00:00,
2013-06-17 14:05:00,87.1,30.3,29.09,North,349,2.2,2.2,13,0.00,,SKC,0.00,VWS V14.01,2013-06-17 19:05:00,
2013-06-17 14:10:00,87.3,30.5,29.09,North,349,0.0,0.0,13,0.00,,SKC,0.00,VWS V14.01,2013-06-17 19:10:00,
2013-06-17 14:15:00,87.1,30.3,29.09,ENE,59,0.0,2.2,13,0.00,,SKC,0.00,VWS V14.01,2013-06-17 19:15:00,
2013-06-17 14:20:00,87.1,30.3,29.09,South,188,2.2,3.1,13,0.00,,SKC,0.00,VWS V14.01,2013-06-17 19:20:00,
2013-06-17 14:25:00,86.9,30.2,29.09,SW,222,2.7,2.7,13,0.00,,SKC,0.00,VWS V14.01,2013-06-17 19:25:00,
2013-06-17 14:30:00,86.5,29.9,29.09,SSE,155,3.6,3.6,13,0.00,,SKC,0.00,VWS V14.01,2013-06-17 19:30:00,
2013-06-17 14:35:00,86.4,29.8,29.09,SSE,166,3.1,3.1,13,0.00,,SKC,0.00,VWS V14.01,2013-06-17 19:35:00,
2013-06-17 14:40:00,86.5,29.9,29.09,South,178,2.7,3.6,13,0.00,,SKC,0.00,VWS V14.01,2013-06-17 19:40:00,
2013-06-17 14:45:00,86.5,29.9,29.06,SSE,151,2.7,4.0,13,0.00,,SKC,0.00,VWS V14.01,2013-06-17 19:45:00,
2013-06-17 14:50:00,86.9,30.2,29.06,WNW,295,2.2,2.2,13,0.00,,SKC,0.00,VWS V14.01,2013-06-17 19:50:00,
2013-06-17 14:55:00,86.9,30.2,29.06,SSE,155,2.2,2.2,13,0.00,,SKC,0.00,VWS V14.01,2013-06-17 19:55:00,
2013-06-17 15:00:00,86.4,29.8,29.06,South,172,2.2,4.0,13,0.00,,SKC,0.00,VWS V14.01,2013-06-17 20:00:00,
2013-06-17 15:05:00,86.2,29.6,29.06,WNW,284,0.0,3.1,13,0.00,,SKC,0.00,VWS V14.01,2013-06-17 20:05:00,
2013-06-17 15:10:00,86.2,29.6,29.06,SW,227,2.7,2.7,13,0.00,,SKC,0.00,VWS V14.01,2013-06-17 20:10:00,
2013-06-17 15:15:00,86.4,29.8,29.06,SSW,194,2.7,2.7,13,0.00,,SKC,0.00,VWS V14.01,2013-06-17 20:15:00,
2013-06-17 15:20:00,86.5,29.9,29.06,SSE,159,0.0,2.7,13,0.00,,SKC,0.00,VWS V14.01,2013-06-17 20:20:00,
2013-06-17 15:25:00,87.1,30.3,29.06,WSW,258,0.0,0.0,13,0.00,,SKC,0.00,VWS V14.01,2013-06-17 20:25:00,
2013-06-17 15:30:00,87.6,30.8,29.03,NNW,348,2.7,3.1,13,0.00,,SKC,0.00,VWS V14.01,2013-06-17 20:30:00,
2013-06-17 15:35:00,87.6,30.8,29.03,NW,310,2.7,2.7,13,0.00,,SKC,0.00,VWS V14.01,2013-06-17 20:35:00,
2013-06-17 15:40:00,87.8,30.9,29.03,NNW,331,2.2,2.2,13,0.00,,SKC,0.00,VWS V14.01,2013-06-17 20:40:00,
2013-06-17 15:45:00,88.0,31.0,29.06,NNW,329,2.7,3.1,13,0.00,,SKC,0.00,VWS V14.01,2013-06-17 20:45:00,
2013-06-17 15:50:00,88.0,31.0,29.06,NNW,333,3.6,3.6,13,0.00,,SKC,0.00,VWS V14.01,2013-06-17 20:50:00,
2013-06-17 15:55:00,88.0,31.0,29.06,NW,314,2.7,2.7,13,0.00,,SKC,0.00,VWS V14.01,2013-06-17 20:55:00,
2013-06-17 16:00:00,87.8,30.9,29.03,NW,326,2.2,2.7,13,0.00,,SKC,0.00,VWS V14.01,2013-06-17 21:00:00,
2013-06-17 16:05:00,87.6,30.8,29.03,NNW,347,2.2,2.7,13,0.00,,SKC,0.00,VWS V14.01,2013-06-17 21:05:00,
2013-06-17 16:10:00,87.6,30.8,29.03,NW,306,2.7,2.7,13,0.00,,SKC,0.00,VWS V14.01,2013-06-17 21:10:00,
2013-06-17 16:15:00,87.4,30.6,29.03,NNW,340,3.1,3.1,13,0.00,,SKC,0.00,VWS V14.01,2013-06-17 21:15:00,
2013-06-17 16:20:00,87.3,30.5,29.03,NW,325,2.7,2.7,13,0.00,,SKC,0.00,VWS V14.01,2013-06-17 21:20:00,
2013-06-17 16:25:00,87.1,30.3,29.03,North,349,0.0,0.0,13,0.00,,SKC,0.00,VWS V14.01,2013-06-17 21:25:00,
2013-06-17 16:30:00,87.3,30.5,29.03,NNW,333,2.7,2.7,13,0.00,,SKC,0.00,VWS V14.01,2013-06-17 21:30:00,
2013-06-17 16:35:00,86.9,30.2,29.03,NNW,335,0.0,2.2,13,0.00,,SKC,0.00,VWS V14.01,2013-06-17 21:35:00,
2013-06-17 16:40:00,86.7,30.0,29.03,NNW,327,0.0,0.0,13,0.00,,SKC,0.00,VWS V14.01,2013-06-17 21:40:00,
2013-06-17 16:45:00,86.7,30.0,29.03,NNW,328,0.0,0.0,13,0.00,,SKC,0.00,VWS V14.01,2013-06-17 21:45:00,
2013-06-17 16:50:00,86.5,29.9,29.03,NNW,339,0.0,0.0,13,0.00,,SKC,0.00,VWS V14.01,2013-06-17 21:50:00,
2013-06-17 16:55:00,86.4,29.8,29.03,NNW,344,2.2,2.2,13,0.00,,SKC,0.00,VWS V14.01,2013-06-17 21:55:00,
2013-06-17 17:00:00,85.6,29.2,29.03,North,351,0.0,0.0,13,0.00,,SKC,0.00,VWS V14.01,2013-06-17 22:00:00,
2013-06-17 17:05:00,84.9,28.6,29.03,North,351,0.0,0.0,13,0.00,,SKC,0.00,VWS V14.01,2013-06-17 22:05:00,
2013-06-17 17:10:00,84.4,28.2,29.03,North,351,0.0,0.0,13,0.00,,SKC,0.00,VWS V14.01,2013-06-17 22:10:00,
2013-06-17 17:15:00,84.0,29.8,29.03,North,351,0.0,0.0,14,0.00,,SKC,0.00,VWS V14.01,2013-06-17 22:15:00,
2013-06-17 17:20:00,83.7,29.5,29.03,North,351,0.0,0.0,14,0.00,,SKC,0.00,VWS V14.01,2013-06-17 22:20:00,
2013-06-17 17:25:00,83.1,29.0,29.03,North,351,0.0,0.0,14,0.00,,SKC,0.00,VWS V14.01,2013-06-17 22:25:00,
2013-06-17 17:30:00,82.8,28.8,29.03,North,351,2.7,2.7,14,0.00,,SKC,0.00,VWS V14.01,2013-06-17 22:30:00,
2013-06-17 17:35:00,82.2,28.3,29.03,North,351,0.0,0.0,14,0.00,,SKC,0.00,VWS V14.01,2013-06-17 22:35:00,
2013-06-17 17:40:00,81.9,28.0,29.03,North,351,0.0,0.0,14,0.00,,SKC,0.00,VWS V14.01,2013-06-17 22:40:00,
2013-06-17 17:45:00,81.5,27.8,29.03,North,351,0.0,0.0,14,0.00,,SKC,0.00,VWS V14.01,2013-06-17 22:45:00,
2013-06-17 17:50:00,81.0,27.3,29.03,North,351,0.0,2.2,14,0.00,,SKC,0.00,VWS V14.01,2013-06-17 22:50:00,
2013-06-17 17:55:00,81.1,27.5,29.03,North,351,2.7,2.7,14,0.00,,SKC,0.00,VWS V14.01,2013-06-17 22:55:00,
2013-06-17 18:00:00,81.0,27.3,29.03,North,351,2.2,2.7,14,0.00,,SKC,0.00,VWS V14.01,2013-06-17 23:00:00,
2013-06-17 18:05:00,80.8,27.2,29.03,North,351,0.0,2.7,14,0.00,,SKC,0.00,VWS V14.01,2013-06-17 23:05:00,
2013-06-17 18:10:00,80.6,27.0,29.03,North,351,0.0,0.0,14,0.00,,SKC,0.00,VWS V14.01,2013-06-17 23:10:00,
2013-06-17 18:15:00,80.8,27.2,29.03,North,351,0.0,0.0,14,0.00,,SKC,0.00,VWS V14.01,2013-06-17 23:15:00,
2013-06-17 18:20:00,80.8,27.2,29.03,North,351,0.0,0.0,14,0.00,,SKC,0.00,VWS V14.01,2013-06-17 23:20:00,
2013-06-17 18:25:00,81.0,27.3,29.03,North,351,0.0,0.0,14,0.00,,SKC,0.00,VWS V14.01,2013-06-17 23:25:00,
2013-06-17 18:30:00,80.8,32.0,29.03,North,351,2.7,2.7,17,0.00,,SKC,0.00,VWS V14.01,2013-06-17 23:30:00,
2013-06-17 18:35:00,80.2,28.4,29.03,North,352,2.7,2.7,15,0.00,,SKC,0.00,VWS V14.01,2013-06-17 23:35:00,
2013-06-17 18:40:00,79.9,28.1,29.03,SSE,162,2.2,2.7,15,0.00,,SKC,0.00,VWS V14.01,2013-06-17 23:40:00,
2013-06-17 18:45:00,79.9,28.1,29.03,SSE,162,2.7,3.1,15,0.00,,SKC,0.00,VWS V14.01,2013-06-17 23:45:00,
2013-06-17 18:50:00,79.9,28.1,29.03,SSE,167,3.1,4.0,15,0.00,,SKC,0.00,VWS V14.01,2013-06-17 23:50:00,
2013-06-17 18:55:00,79.9,28.1,29.03,SSE,167,3.1,3.1,15,0.00,,SKC,0.00,VWS V14.01,2013-06-17 23:55:00,
2013-06-17 19:00:00,79.9,28.1,29.00,SSE,167,2.7,2.7,15,0.00,,SKC,0.00,VWS V14.01,2013-06-18 00:00:00,
2013-06-17 19:05:00,79.9,28.1,29.00,SSE,167,2.2,2.7,15,0.00,,SKC,0.00,VWS V14.01,2013-06-18 00:05:00,
2013-06-17 19:10:00,79.9,28.1,29.00,SSE,167,0.0,0.0,15,0.00,,SKC,0.00,VWS V14.01,2013-06-18 00:10:00,
2013-06-17 19:15:00,79.9,28.1,29.03,SSE,167,3.1,3.1,15,0.00,,SKC,0.00,VWS V14.01,2013-06-18 00:15:00,
2013-06-17 19:20:00,79.7,28.0,29.03,SSE,167,2.7,3.1,15,0.00,,SKC,0.00,VWS V14.01,2013-06-18 00:20:00,
2013-06-17 19:25:00,79.2,27.6,29.03,SSE,167,2.2,3.1,15,0.00,,SKC,0.00,VWS V14.01,2013-06-18 00:25:00,
2013-06-17 19:30:00,79.0,27.4,29.03,SSE,167,2.2,2.7,15,0.00,,SKC,0.00,VWS V14.01,2013-06-18 00:30:00,
2013-06-17 19:35:00,78.6,27.1,29.03,SSE,167,2.7,3.1,15,0.00,,SKC,0.00,VWS V14.01,2013-06-18 00:35:00,
2013-06-17 19:40:00,78.4,27.0,29.03,SSE,167,3.1,3.1,15,0.00,,SKC,0.00,VWS V14.01,2013-06-18 00:40:00,
2013-06-17 19:45:00,78.4,27.0,29.03,SSE,167,0.0,0.0,15,0.00,,SKC,0.00,VWS V14.01,2013-06-18 00:45:00,
2013-06-17 19:50:00,78.4,27.0,29.03,SSE,167,0.0,0.0,15,0.00,,SKC,0.00,VWS V14.01,2013-06-18 00:50:00,
2013-06-17 19:55:00,78.3,26.9,29.03,ENE,60,0.0,0.0,15,0.00,,SKC,0.00,VWS V14.01,2013-06-18 00:55:00,
2013-06-17 20:00:00,77.9,26.6,29.03,NE,54,2.2,2.7,15,0.00,,SKC,0.00,VWS V14.01,2013-06-18 01:00:00,
2013-06-17 20:05:00,77.7,26.4,29.03,NE,42,0.0,0.0,15,0.00,,SKC,0.00,VWS V14.01,2013-06-18 01:05:00,
2013-06-17 20:10:00,77.2,26.0,29.03,NE,42,0.0,0.0,15,0.00,,SKC,0.00,VWS V14.01,2013-06-18 01:10:00,
2013-06-17 20:15:00,77.0,25.9,29.03,NE,42,2.7,2.7,15,0.00,,SKC,0.00,VWS V14.01,2013-06-18 01:15:00,
2013-06-17 20:20:00,77.2,26.0,29.03,NE,42,0.0,0.0,15,0.00,,SKC,0.00,VWS V14.01,2013-06-18 01:20:00,
2013-06-17 20:25:00,77.2,26.0,29.03,NNW,342,5.8,5.8,15,0.00,,SKC,0.00,VWS V14.01,2013-06-18 01:25:00,
2013-06-17 20:30:00,76.1,33.4,29.06,South,177,3.1,3.1,21,0.08,,SKC,0.08,VWS V14.01,2013-06-18 01:30:00,
2013-06-17 20:35:00,73.2,41.6,29.06,South,169,2.7,3.6,32,0.08,,SKC,0.08,VWS V14.01,2013-06-18 01:35:00,
2013-06-17 20:40:00,71.8,41.2,29.06,South,182,3.6,3.6,33,0.08,,SKC,0.08,VWS V14.01,2013-06-18 01:40:00,
2013-06-17 20:45:00,70.3,47.4,29.03,SSE,166,3.1,3.1,44,0.08,,SKC,0.08,VWS V14.01,2013-06-18 01:45:00,
2013-06-17 20:50:00,69.3,48.2,29.03,SSE,168,3.1,3.1,47,0.08,,SKC,0.08,VWS V14.01,2013-06-18 01:50:00,
2013-06-17 20:55:00,69.1,50.7,29.03,NW,319,3.1,3.1,52,0.08,,SKC,0.08,VWS V14.01,2013-06-18 01:55:00,
2013-06-17 21:00:00,69.8,52.4,29.06,NW,313,3.1,3.1,54,0.08,,SKC,0.08,VWS V14.01,2013-06-18 02:00:00,
2013-06-17 21:05:00,70.2,45.4,29.06,NE,35,25.1,26.2,41,0.08,,SKC,0.08,VWS V14.01,2013-06-18 02:05:00,
2013-06-17 21:10:00,69.8,38.6,29.06,NNE,24,10.5,10.5,32,0.08,,SKC,0.08,VWS V14.01,2013-06-18 02:10:00,
2013-06-17 21:15:00,69.4,39.1,29.06,NNE,23,15.4,15.4,33,0.08,,SKC,0.08,VWS V14.01,2013-06-18 02:15:00,
2013-06-17 21:20:00,69.3,39.0,29.06,NNE,19,17.9,17.9,33,0.08,,SKC,0.08,VWS V14.01,2013-06-18 02:20:00,
2013-06-17 21:25:00,68.7,41.4,29.06,North,6,11.9,11.9,37,0.04,,SKC,0.08,VWS V14.01,2013-06-18 02:25:00,
2013-06-17 21:30:00,68.2,40.2,29.09,North,9,7.6,7.6,36,0.00,,SKC,0.08,VWS V14.01,2013-06-18 02:30:00,
2013-06-17 21:35:00,68.2,41.6,29.09,NE,37,3.1,3.1,38,0.00,,SKC,0.08,VWS V14.01,2013-06-18 02:35:00,
2013-06-17 21:40:00,68.4,42.5,29.09,NE,36,3.1,3.1,39,0.00,,SKC,0.08,VWS V14.01,2013-06-18 02:40:00,
2013-06-17 21:45:00,68.4,43.1,29.09,NE,39,4.0,4.0,40,0.00,,SKC,0.08,VWS V14.01,2013-06-18 02:45:00,
2013-06-17 21:50:00,68.5,43.3,29.09,ENE,65,0.0,3.6,40,0.00,,SKC,0.08,VWS V14.01,2013-06-18 02:50:00,
2013-06-17 21:55:00,68.5,42.0,29.09,NE,48,2.7,3.6,38,0.00,,SKC,0.08,VWS V14.01,2013-06-18 02:55:00,
2013-06-17 22:00:00,68.5,41.3,29.09,East,84,0.0,2.2,37,0.00,,SKC,0.08,VWS V14.01,2013-06-18 03:00:00,
2013-06-17 22:05:00,68.4,40.4,29.09,East,89,2.2,2.2,36,0.00,,SKC,0.08,VWS V14.01,2013-06-18 03:05:00,
2013-06-17 22:10:00,68.2,40.2,29.09,ESE,111,0.0,3.1,36,0.00,,SKC,0.08,VWS V14.01,2013-06-18 03:10:00,
2013-06-17 22:15:00,68.2,40.9,29.09,East,82,0.0,0.0,37,0.00,,SKC,0.08,VWS V14.01,2013-06-18 03:15:00,
2013-06-17 22:20:00,67.8,43.3,29.09,East,89,0.0,0.0,41,0.00,,SKC,0.08,VWS V14.01,2013-06-18 03:20:00,
2013-06-17 22:25:00,67.1,43.9,29.09,South,172,0.0,3.1,43,0.00,,SKC,0.08,VWS V14.01,2013-06-18 03:25:00,
2013-06-17 22:30:00,66.7,44.8,29.06,South,172,0.0,0.0,45,0.00,,SKC,0.08,VWS V14.01,2013-06-18 03:30:00,
2013-06-17 22:35:00,66.7,43.5,29.06,South,172,0.0,0.0,43,0.00,,SKC,0.08,VWS V14.01,2013-06-18 03:35:00,
2013-06-17 22:40:00,66.7,42.9,29.06,SSE,159,0.0,0.0,42,0.00,,SKC,0.08,VWS V14.01,2013-06-18 03:40:00,
2013-06-17 22:45:00,66.7,42.3,29.06,SSE,159,0.0,0.0,41,0.00,,SKC,0.08,VWS V14.01,2013-06-18 03:45:00,
2013-06-17 22:50:00,66.6,42.2,29.06,SSE,159,0.0,0.0,41,0.00,,SKC,0.08,VWS V14.01,2013-06-18 03:50:00,
2013-06-17 22:55:00,66.7,42.3,29.06,SSE,159,0.0,0.0,41,0.00,,SKC,0.08,VWS V14.01,2013-06-18 03:55:00,
2013-06-17 23:00:00,67.1,42.6,29.06,SSE,159,0.0,0.0,41,0.00,,SKC,0.08,VWS V14.01,2013-06-18 04:00:00,
2013-06-17 23:01:00,67.3,42.8,29.06,SSE,159,0.0,0.0,41,0.00,,SKC,0.08,VWS V14.01,2013-06-18 04:01:00,
2013-06-17 23:06:00,67.5,43.0,29.06,SSE,159,0.0,0.0,41,0.00,,SKC,0.08,VWS V14.01,2013-06-18 04:06:00,
2013-06-17 23:11:00,68.0,45.3,29.06,NNE,19,5.4,5.4,44,0.00,,SKC,0.08,VWS V14.01,2013-06-18 04:11:00,
2013-06-17 23:16:00,67.5,44.8,29.06,NNE,19,5.8,5.8,44,0.00,,SKC,0.08,VWS V14.01,2013-06-18 04:16:00,
2013-06-17 23:21:00,67.1,43.9,29.06,NNE,18,4.9,4.9,43,0.00,,SKC,0.08,VWS V14.01,2013-06-18 04:21:00,
2013-06-17 23:26:00,66.9,43.7,29.06,NNE,20,4.0,4.0,43,0.00,,SKC,0.08,VWS V14.01,2013-06-18 04:26:00,
2013-06-17 23:31:00,66.7,43.5,29.06,NNE,21,0.0,0.0,43,0.00,,SKC,0.08,VWS V14.01,2013-06-18 04:31:00,
2013-06-17 23:36:00,66.7,42.9,29.06,NNE,29,2.2,2.2,42,0.00,,SKC,0.08,VWS V14.01,2013-06-18 04:36:00,
2013-06-17 23:41:00,66.7,41.7,29.06,NNE,29,0.0,0.0,40,0.00,,SKC,0.08,VWS V14.01,2013-06-18 04:41:00,
2013-06-17 23:46:00,66.6,42.8,29.06,NNE,29,0.0,0.0,42,0.00,,SKC,0.08,VWS V14.01,2013-06-18 04:46:00,
2013-06-17 23:51:00,66.2,42.5,29.06,NNE,29,0.0,0.0,42,0.00,,SKC,0.08,VWS V14.01,2013-06-18 04:51:00,
2013-06-17 23:56:00,66.2,43.1,29.06,NNE,29,0.0,0.0,43,0.00,,SKC,0.08,VWS V14.01,2013-06-18 04:56:00,